createdAt,value
2018-06-21T00:00:22.601Z,1003.68
2018-06-21T00:01:03.126Z,1003.7
2018-06-21T00:01:43.588Z,1003.68
2018-06-21T00:02:24.093Z,1003.73
2018-06-21T00:03:04.582Z,1003.71
2018-06-21T00:03:45.090Z,1003.69
2018-06-21T00:04:25.548Z,1003.66
2018-06-21T00:05:06.079Z,1003.68
2018-06-21T00:05:46.563Z,1003.68
2018-06-21T00:06:27.030Z,1003.66
2018-06-21T00:07:07.519Z,1003.62
2018-06-21T00:07:48.030Z,1003.65
2018-06-21T00:08:28.500Z,1003.64
2018-06-21T00:09:09.026Z,1003.66
2018-06-21T00:09:49.549Z,1003.67
2018-06-21T00:10:29.975Z,1003.68
2018-06-21T00:11:10.489Z,1003.65
2018-06-21T00:11:51.007Z,1003.65
2018-06-21T00:12:31.507Z,1003.6
2018-06-21T00:13:11.991Z,1003.63
2018-06-21T00:13:52.489Z,1003.62
2018-06-21T00:14:32.969Z,1003.61
2018-06-21T00:15:13.488Z,1003.64
2018-06-21T00:15:53.935Z,1003.63
2018-06-21T00:16:34.487Z,1003.62
2018-06-21T00:17:15.070Z,1003.6
2018-06-21T00:17:55.521Z,1003.61
2018-06-21T00:18:36.078Z,1003.63
2018-06-21T00:19:16.492Z,1003.62
2018-06-21T00:19:57.003Z,1003.63
2018-06-21T00:20:37.486Z,1003.6
2018-06-21T00:21:18.141Z,1003.62
2018-06-21T00:21:58.576Z,1003.61
2018-06-21T00:22:39.076Z,1003.61
2018-06-21T00:23:19.548Z,1003.56
2018-06-21T00:24:00.070Z,1003.55
2018-06-21T00:24:40.561Z,1003.56
2018-06-21T00:25:21.065Z,1003.59
2018-06-21T00:26:01.568Z,1003.62
2018-06-21T00:26:42.002Z,1003.59
2018-06-21T00:27:22.513Z,1003.62
2018-06-21T00:28:02.998Z,1003.6
2018-06-21T00:28:43.519Z,1003.65
2018-06-21T00:29:23.984Z,1003.62
2018-06-21T00:30:04.464Z,1003.57
2018-06-21T00:30:44.992Z,1003.63
2018-06-21T00:31:25.476Z,1003.6
2018-06-21T00:32:05.970Z,1003.56
2018-06-21T00:32:46.476Z,1003.57
2018-06-21T00:33:26.981Z,1003.59
2018-06-21T00:34:07.474Z,1003.57
2018-06-21T00:34:47.987Z,1003.59
2018-06-21T00:35:28.505Z,1003.58
2018-06-21T00:36:08.967Z,1003.55
2018-06-21T00:36:49.515Z,1003.56
2018-06-21T00:37:29.968Z,1003.54
2018-06-21T00:38:10.479Z,1003.55
2018-06-21T00:38:50.970Z,1003.54
2018-06-21T00:39:31.449Z,1003.56
2018-06-21T00:40:11.966Z,1003.55
2018-06-21T00:40:52.483Z,1003.53
2018-06-21T00:41:32.953Z,1003.53
2018-06-21T00:42:13.459Z,1003.54
2018-06-21T00:42:53.906Z,1003.49
2018-06-21T00:43:34.413Z,1003.55
2018-06-21T00:44:14.900Z,1003.53
2018-06-21T00:44:55.440Z,1003.51
2018-06-21T00:45:35.946Z,1003.55
2018-06-21T00:46:16.421Z,1003.52
2018-06-21T00:46:56.874Z,1003.49
2018-06-21T00:47:37.416Z,1003.48
2018-06-21T00:48:17.886Z,1003.47
2018-06-21T00:48:58.382Z,1003.49
2018-06-21T00:49:38.916Z,1003.52
2018-06-21T00:50:19.395Z,1003.41
2018-06-21T00:50:59.879Z,1003.43
2018-06-21T00:51:40.332Z,1003.43
2018-06-21T00:52:20.817Z,1003.42
2018-06-21T00:53:01.359Z,1003.4
2018-06-21T00:53:41.875Z,1003.43
2018-06-21T00:54:22.353Z,1003.38
2018-06-21T00:55:02.843Z,1003.46
2018-06-21T00:55:43.335Z,1003.42
2018-06-21T00:56:23.873Z,1003.44
2018-06-21T00:57:04.346Z,1003.44
2018-06-21T00:57:44.811Z,1003.42
2018-06-21T00:58:25.299Z,1003.39
2018-06-21T00:59:05.773Z,1003.39
2018-06-21T00:59:46.274Z,1003.36
2018-06-21T01:00:26.773Z,1003.36
2018-06-21T01:01:07.295Z,1003.34
2018-06-21T01:01:47.798Z,1003.33
2018-06-21T01:02:28.269Z,1003.33
2018-06-21T01:03:08.748Z,1003.32
2018-06-21T01:03:49.248Z,1003.33
2018-06-21T01:04:29.773Z,1003.34
2018-06-21T01:05:10.373Z,1003.35
2018-06-21T01:05:50.841Z,1003.32
2018-06-21T01:06:31.371Z,1003.34
2018-06-21T01:07:11.908Z,1003.3
2018-06-21T01:07:52.388Z,1003.34
2018-06-21T01:08:32.868Z,1003.31
2018-06-21T01:09:13.432Z,1003.35
2018-06-21T01:09:53.947Z,1003.3
2018-06-21T01:10:34.398Z,1003.36
2018-06-21T01:11:14.923Z,1003.29
2018-06-21T01:11:55.374Z,1003.3
2018-06-21T01:12:35.860Z,1003.3
2018-06-21T01:13:16.403Z,1003.27
2018-06-21T01:13:56.878Z,1003.29
2018-06-21T01:14:37.338Z,1003.26
2018-06-21T01:15:17.837Z,1003.28
2018-06-21T01:15:58.337Z,1003.27
2018-06-21T01:16:38.787Z,1003.25
2018-06-21T01:17:19.292Z,1003.24
2018-06-21T01:17:59.786Z,1003.22
2018-06-21T01:18:40.266Z,1003.26
2018-06-21T01:19:20.767Z,1003.22
2018-06-21T01:20:01.235Z,1003.23
2018-06-21T01:20:41.698Z,1003.26
2018-06-21T01:21:22.196Z,1003.19
2018-06-21T01:22:02.701Z,1003.24
2018-06-21T01:22:43.195Z,1003.21
2018-06-21T01:23:23.652Z,1003.2
2018-06-21T01:24:04.146Z,1003.24
2018-06-21T01:24:44.647Z,1003.23
2018-06-21T01:25:25.222Z,1003.27
2018-06-21T01:26:05.679Z,1003.22
2018-06-21T01:26:46.206Z,1003.25
2018-06-21T01:27:26.735Z,1003.22
2018-06-21T01:28:07.269Z,1003.22
2018-06-21T01:28:47.783Z,1003.18
2018-06-21T01:29:28.310Z,1003.23
2018-06-21T01:30:08.850Z,1003.19
2018-06-21T01:30:49.369Z,1003.2
2018-06-21T01:31:29.896Z,1003.15
2018-06-21T01:32:10.431Z,1003.15
2018-06-21T01:32:50.960Z,1003.21
2018-06-21T01:33:31.474Z,1003.2
2018-06-21T01:34:12.006Z,1003.16
2018-06-21T01:34:52.516Z,1003.17
2018-06-21T01:35:33.047Z,1003.18
2018-06-21T01:36:13.566Z,1003.19
2018-06-21T01:36:54.089Z,1003.18
2018-06-21T01:37:34.618Z,1003.17
2018-06-21T01:38:15.128Z,1003.16
2018-06-21T01:38:55.662Z,1003.17
2018-06-21T01:39:36.178Z,1003.19
2018-06-21T01:40:16.718Z,1003.19
2018-06-21T01:40:57.228Z,1003.17
2018-06-21T01:41:37.753Z,1003.18
2018-06-21T01:42:18.268Z,1003.16
2018-06-21T01:42:58.802Z,1003.18
2018-06-21T01:43:39.317Z,1003.12
2018-06-21T01:44:19.826Z,1003.15
2018-06-21T01:45:00.355Z,1003.12
2018-06-21T01:45:40.879Z,1003.16
2018-06-21T01:46:21.391Z,1003.15
2018-06-21T01:47:01.907Z,1003.16
2018-06-21T01:47:42.429Z,1003.14
2018-06-21T01:48:22.969Z,1003.09
2018-06-21T01:49:03.490Z,1003.13
2018-06-21T01:49:44.016Z,1003.14
2018-06-21T01:50:24.538Z,1003.12
2018-06-21T01:51:05.049Z,1003.11
2018-06-21T01:51:45.573Z,1003.1
2018-06-21T01:52:26.095Z,1003.1
2018-06-21T01:53:06.626Z,1003.08
2018-06-21T01:53:47.159Z,1003.06
2018-06-21T01:54:27.685Z,1003.12
2018-06-21T01:55:08.204Z,1003.13
2018-06-21T01:55:48.747Z,1003.15
2018-06-21T01:56:29.259Z,1003.12
2018-06-21T01:57:09.796Z,1003.13
2018-06-21T01:57:50.304Z,1003.15
2018-06-21T01:58:30.836Z,1003.11
2018-06-21T01:59:11.367Z,1003.1
2018-06-21T01:59:51.884Z,1003.09
2018-06-21T02:00:32.412Z,1003.12
2018-06-21T02:01:12.934Z,1003.1
2018-06-21T02:01:53.456Z,1003.08
2018-06-21T02:02:33.960Z,1003.09
2018-06-21T02:03:14.491Z,1003.08
2018-06-21T02:03:55.016Z,1003.07
2018-06-21T02:04:35.529Z,1003.11
2018-06-21T02:05:16.024Z,1003.07
2018-06-21T02:05:56.529Z,1003.04
2018-06-21T02:06:37.105Z,1003.11
2018-06-21T02:07:17.623Z,1003.08
2018-06-21T02:07:58.171Z,1003.08
2018-06-21T02:08:38.679Z,1003.04
2018-06-21T02:09:19.245Z,1003.11
2018-06-21T02:09:59.747Z,1003.04
2018-06-21T02:10:40.261Z,1003.07
2018-06-21T02:11:20.867Z,1003.08
2018-06-21T02:12:01.305Z,1003.11
2018-06-21T02:12:41.815Z,1003.06
2018-06-21T02:13:22.366Z,1003.12
2018-06-21T02:14:02.851Z,1003.09
2018-06-21T02:14:43.381Z,1003.09
2018-06-21T02:15:23.904Z,1003.07
2018-06-21T02:16:04.422Z,1003.08
2018-06-21T02:16:44.983Z,1003.1
2018-06-21T02:17:25.501Z,1003.05
2018-06-21T02:18:06.022Z,1003.09
2018-06-21T02:18:46.549Z,1003.08
2018-06-21T02:19:27.071Z,1003.12
2018-06-21T02:20:07.593Z,1003.06
2018-06-21T02:20:48.120Z,1003.09
2018-06-21T02:21:28.662Z,1003.1
2018-06-21T02:22:09.157Z,1003.07
2018-06-21T02:22:49.675Z,1003.05
2018-06-21T02:23:30.204Z,1003.08
2018-06-21T02:24:10.735Z,1003.05
2018-06-21T02:24:51.303Z,1003.06
2018-06-21T02:25:31.834Z,1003.1
2018-06-21T02:26:12.370Z,1003.12
2018-06-21T02:26:52.859Z,1003.11
2018-06-21T02:27:33.390Z,1003.09
2018-06-21T02:28:13.898Z,1003.14
2018-06-21T02:28:54.424Z,1003.09
2018-06-21T02:29:34.945Z,1003.05
2018-06-21T02:30:15.474Z,1003.05
2018-06-21T02:30:55.991Z,1003.07
2018-06-21T02:31:36.514Z,1003.06
2018-06-21T02:32:17.050Z,1003.06
2018-06-21T02:32:57.551Z,1003.08
2018-06-21T02:33:38.079Z,1003.02
2018-06-21T02:34:18.599Z,1003.03
2018-06-21T02:34:59.242Z,1003
2018-06-21T02:35:39.740Z,1003.03
2018-06-21T02:36:20.280Z,1003.02
2018-06-21T02:37:00.786Z,1003.01
2018-06-21T02:37:41.285Z,1003
2018-06-21T02:38:21.805Z,1002.95
2018-06-21T02:39:02.335Z,1002.97
2018-06-21T02:39:42.862Z,1003.01
2018-06-21T02:40:23.391Z,1002.99
2018-06-21T02:41:03.914Z,1002.97
2018-06-21T02:41:44.434Z,1002.95
2018-06-21T02:42:24.931Z,1002.92
2018-06-21T02:43:05.483Z,1002.94
2018-06-21T02:43:46.009Z,1002.92
2018-06-21T02:44:26.505Z,1002.96
2018-06-21T02:45:07.033Z,1002.97
2018-06-21T02:45:47.563Z,1002.97
2018-06-21T02:46:28.095Z,1002.94
2018-06-21T02:47:08.625Z,1002.95
2018-06-21T02:47:49.140Z,1002.96
2018-06-21T02:48:29.665Z,1002.94
2018-06-21T02:49:10.175Z,1002.91
2018-06-21T02:49:50.699Z,1002.92
2018-06-21T02:50:31.214Z,1002.94
2018-06-21T02:51:11.728Z,1002.94
2018-06-21T02:51:52.247Z,1002.92
2018-06-21T02:52:32.768Z,1002.92
2018-06-21T02:53:13.283Z,1002.88
2018-06-21T02:53:53.781Z,1002.89
2018-06-21T02:54:34.306Z,1002.88
2018-06-21T02:55:14.822Z,1002.93
2018-06-21T02:55:55.330Z,1002.9
2018-06-21T02:56:35.840Z,1002.95
2018-06-21T02:57:16.362Z,1002.91
2018-06-21T02:57:56.890Z,1002.95
2018-06-21T02:58:37.409Z,1002.91
2018-06-21T02:59:17.925Z,1002.91
2018-06-21T02:59:58.455Z,1002.91
2018-06-21T03:00:38.970Z,1002.94
2018-06-21T03:01:19.524Z,1002.94
2018-06-21T03:02:00.034Z,1002.89
2018-06-21T03:02:40.541Z,1002.88
2018-06-21T03:03:21.056Z,1002.93
2018-06-21T03:04:01.699Z,1002.92
2018-06-21T03:04:42.108Z,1002.92
2018-06-21T03:05:22.650Z,1002.92
2018-06-21T03:06:03.180Z,1002.97
2018-06-21T03:06:43.705Z,1002.93
2018-06-21T03:07:24.218Z,1002.96
2018-06-21T03:08:04.755Z,1002.96
2018-06-21T03:08:45.284Z,1003.02
2018-06-21T03:09:25.793Z,1003.03
2018-06-21T03:10:06.301Z,1003.02
2018-06-21T03:10:46.828Z,1002.98
2018-06-21T03:11:27.351Z,1003
2018-06-21T03:12:07.878Z,1003.02
2018-06-21T03:12:48.401Z,1003.02
2018-06-21T03:13:28.924Z,1003.03
2018-06-21T03:14:09.442Z,1003.01
2018-06-21T03:14:49.957Z,1003.05
2018-06-21T03:15:30.483Z,1002.99
2018-06-21T03:16:11.003Z,1002.97
2018-06-21T03:16:51.526Z,1003
2018-06-21T03:17:32.058Z,1002.94
2018-06-21T03:18:12.558Z,1002.95
2018-06-21T03:18:53.090Z,1002.98
2018-06-21T03:19:33.611Z,1002.98
2018-06-21T03:20:14.137Z,1002.98
2018-06-21T03:20:54.662Z,1002.99
2018-06-21T03:21:35.184Z,1003
2018-06-21T03:22:15.700Z,1002.99
2018-06-21T03:22:56.227Z,1002.99
2018-06-21T03:23:36.729Z,1003.01
2018-06-21T03:24:17.229Z,1003.01
2018-06-21T03:24:57.750Z,1003.01
2018-06-21T03:25:38.272Z,1003.02
2018-06-21T03:26:18.782Z,1003.02
2018-06-21T03:26:59.309Z,1003.04
2018-06-21T03:27:39.824Z,1003.04
2018-06-21T03:28:20.351Z,1003.07
2018-06-21T03:29:00.873Z,1003.09
2018-06-21T03:29:41.388Z,1003.09
2018-06-21T03:30:21.929Z,1003.06
2018-06-21T03:31:02.452Z,1003.04
2018-06-21T03:31:42.986Z,1003.05
2018-06-21T03:32:23.502Z,1003.02
2018-06-21T03:33:04.021Z,1003.03
2018-06-21T03:33:44.543Z,1003.02
2018-06-21T03:34:25.069Z,1003.06
2018-06-21T03:35:05.591Z,1003.07
2018-06-21T03:35:46.114Z,1003.07
2018-06-21T03:36:26.639Z,1003.08
2018-06-21T03:37:07.169Z,1003.08
2018-06-21T03:37:47.680Z,1003.11
2018-06-21T03:38:28.206Z,1003.11
2018-06-21T03:39:08.726Z,1003.09
2018-06-21T03:39:49.242Z,1003.07
2018-06-21T03:40:29.769Z,1003.09
2018-06-21T03:41:10.292Z,1003.08
2018-06-21T03:41:50.820Z,1003.05
2018-06-21T03:42:31.349Z,1003
2018-06-21T03:43:11.863Z,1002.97
2018-06-21T03:43:52.449Z,1002.97
2018-06-21T03:44:32.964Z,1002.97
2018-06-21T03:45:13.493Z,1002.97
2018-06-21T03:45:54.021Z,1002.96
2018-06-21T03:46:34.546Z,1003.04
2018-06-21T03:47:15.071Z,1003.05
2018-06-21T03:47:55.604Z,1003.05
2018-06-21T03:48:36.110Z,1003
2018-06-21T03:49:16.635Z,1003.04
2018-06-21T03:49:57.154Z,1003.04
2018-06-21T03:50:37.669Z,1003.02
2018-06-21T03:51:18.189Z,1003.04
2018-06-21T03:51:58.712Z,1003.09
2018-06-21T03:52:39.234Z,1003.1
2018-06-21T03:53:19.751Z,1003.09
2018-06-21T03:54:00.270Z,1003.08
2018-06-21T03:54:40.811Z,1003.07
2018-06-21T03:55:21.306Z,1003.11
2018-06-21T03:56:01.821Z,1003.08
2018-06-21T03:56:42.465Z,1003.08
2018-06-21T03:57:23.023Z,1003.05
2018-06-21T03:58:03.552Z,1003.08
2018-06-21T03:58:44.074Z,1003.1
2018-06-21T03:59:24.601Z,1003.11
2018-06-21T04:00:05.168Z,1003.15
2018-06-21T04:00:45.648Z,1003.17
2018-06-21T04:01:26.174Z,1003.15
2018-06-21T04:02:06.707Z,1003.13
2018-06-21T04:02:47.233Z,1003.16
2018-06-21T04:03:27.746Z,1003.16
2018-06-21T04:04:08.256Z,1003.16
2018-06-21T04:04:48.783Z,1003.16
2018-06-21T04:05:29.347Z,1003.19
2018-06-21T04:06:09.821Z,1003.16
2018-06-21T04:06:50.344Z,1003.21
2018-06-21T04:07:30.862Z,1003.2
2018-06-21T04:08:11.378Z,1003.19
2018-06-21T04:08:51.900Z,1003.17
2018-06-21T04:09:32.451Z,1003.2
2018-06-21T04:10:12.935Z,1003.16
2018-06-21T04:10:53.468Z,1003.17
2018-06-21T04:11:33.993Z,1003.14
2018-06-21T04:12:14.503Z,1003.19
2018-06-21T04:12:55.027Z,1003.15
2018-06-21T04:13:35.536Z,1003.17
2018-06-21T04:14:16.124Z,1003.18
2018-06-21T04:14:56.646Z,1003.2
2018-06-21T04:15:37.192Z,1003.19
2018-06-21T04:16:17.755Z,1003.21
2018-06-21T04:16:58.265Z,1003.23
2018-06-21T04:17:38.786Z,1003.21
2018-06-21T04:18:19.311Z,1003.19
2018-06-21T04:18:59.827Z,1003.19
2018-06-21T04:19:40.347Z,1003.19
2018-06-21T04:20:20.871Z,1003.19
2018-06-21T04:21:01.411Z,1003.16
2018-06-21T04:21:41.925Z,1003.17
2018-06-21T04:22:22.443Z,1003.18
2018-06-21T04:23:02.957Z,1003.17
2018-06-21T04:23:43.476Z,1003.2
2018-06-21T04:24:24.021Z,1003.2
2018-06-21T04:25:04.542Z,1003.15
2018-06-21T04:25:45.067Z,1003.13
2018-06-21T04:26:25.608Z,1003.18
2018-06-21T04:27:06.122Z,1003.18
2018-06-21T04:27:46.659Z,1003.15
2018-06-21T04:28:27.182Z,1003.13
2018-06-21T04:29:07.700Z,1003.16
2018-06-21T04:29:48.217Z,1003.14
2018-06-21T04:30:28.733Z,1003.16
2018-06-21T04:31:09.443Z,1003.17
2018-06-21T04:31:49.908Z,1003.2
2018-06-21T04:32:30.433Z,1003.18
2018-06-21T04:33:10.957Z,1003.19
2018-06-21T04:33:51.494Z,1003.19
2018-06-21T04:34:32.137Z,1003.19
2018-06-21T04:35:12.661Z,1003.17
2018-06-21T04:35:53.278Z,1003.17
2018-06-21T04:36:33.810Z,1003.2
2018-06-21T04:37:14.330Z,1003.17
2018-06-21T04:37:54.898Z,1003.22
2018-06-21T04:38:35.386Z,1003.23
2018-06-21T04:39:15.917Z,1003.22
2018-06-21T04:39:56.437Z,1003.25
2018-06-21T04:40:36.951Z,1003.32
2018-06-21T04:41:17.484Z,1003.23
2018-06-21T04:41:58.014Z,1003.31
2018-06-21T04:42:38.542Z,1003.29
2018-06-21T04:43:19.066Z,1003.22
2018-06-21T04:43:59.582Z,1003.19
2018-06-21T04:44:40.115Z,1003.22
2018-06-21T04:45:20.660Z,1003.22
2018-06-21T04:46:01.205Z,1003.2
2018-06-21T04:46:41.735Z,1003.19
2018-06-21T04:47:22.245Z,1003.25
2018-06-21T04:48:02.774Z,1003.23
2018-06-21T04:48:43.318Z,1003.23
2018-06-21T04:49:23.835Z,1003.24
2018-06-21T04:50:04.347Z,1003.24
2018-06-21T04:50:44.882Z,1003.29
2018-06-21T04:55:08.940Z,1003.32
2018-06-21T04:55:49.463Z,1003.34
2018-06-21T04:56:29.965Z,1003.41
2018-06-21T04:57:10.484Z,1003.39
2018-06-21T04:57:51.012Z,1003.35
2018-06-21T04:58:31.523Z,1003.34
2018-06-21T04:59:12.054Z,1003.36
2018-06-21T04:59:52.569Z,1003.34
2018-06-21T05:00:33.120Z,1003.31
2018-06-21T05:01:13.641Z,1003.34
2018-06-21T05:01:54.167Z,1003.32
2018-06-21T05:02:34.729Z,1003.37
2018-06-21T05:03:15.231Z,1003.34
2018-06-21T05:03:55.814Z,1003.31
2018-06-21T05:04:36.340Z,1003.32
2018-06-21T05:05:16.863Z,1003.37
2018-06-21T05:05:57.395Z,1003.38
2018-06-21T05:06:37.916Z,1003.39
2018-06-21T05:07:18.437Z,1003.41
2018-06-21T05:07:58.962Z,1003.36
2018-06-21T05:08:39.487Z,1003.37
2018-06-21T05:09:20.008Z,1003.4
2018-06-21T05:10:00.534Z,1003.38
2018-06-21T05:10:41.042Z,1003.41
2018-06-21T05:11:21.590Z,1003.4
2018-06-21T05:12:02.110Z,1003.44
2018-06-21T05:12:42.636Z,1003.47
2018-06-21T05:13:23.175Z,1003.47
2018-06-21T05:14:03.750Z,1003.49
2018-06-21T05:14:44.268Z,1003.54
2018-06-21T05:15:24.786Z,1003.53
2018-06-21T05:16:05.318Z,1003.55
2018-06-21T05:16:45.825Z,1003.59
2018-06-21T05:17:26.391Z,1003.57
2018-06-21T05:18:06.915Z,1003.59
2018-06-21T05:18:47.460Z,1003.47
2018-06-21T05:19:27.986Z,1003.49
2018-06-21T05:20:08.516Z,1003.47
2018-06-21T05:20:49.031Z,1003.5
2018-06-21T05:21:29.553Z,1003.5
2018-06-21T05:22:10.067Z,1003.52
2018-06-21T05:22:50.615Z,1003.51
2018-06-21T05:23:31.155Z,1003.45
2018-06-21T05:24:11.673Z,1003.52
2018-06-21T05:24:52.204Z,1003.49
2018-06-21T05:25:32.756Z,1003.47
2018-06-21T05:26:13.291Z,1003.44
2018-06-21T05:26:53.803Z,1003.46
2018-06-21T05:27:34.320Z,1003.42
2018-06-21T05:28:14.861Z,1003.4
2018-06-21T05:28:56.050Z,1003.41
2018-06-21T05:29:36.569Z,1003.4
2018-06-21T05:30:17.078Z,1003.41
2018-06-21T05:30:57.599Z,1003.45
2018-06-21T05:31:38.121Z,1003.44
2018-06-21T05:32:18.657Z,1003.4
2018-06-21T05:32:59.185Z,1003.45
2018-06-21T05:33:39.695Z,1003.4
2018-06-21T05:34:20.223Z,1003.43
2018-06-21T05:35:00.796Z,1003.41
2018-06-21T05:35:41.316Z,1003.47
2018-06-21T05:36:21.844Z,1003.47
2018-06-21T05:37:02.358Z,1003.48
2018-06-21T05:37:42.892Z,1003.56
2018-06-21T05:38:23.445Z,1003.5
2018-06-21T05:39:03.974Z,1003.49
2018-06-21T05:39:44.491Z,1003.53
2018-06-21T05:40:25.015Z,1003.51
2018-06-21T05:41:05.536Z,1003.49
2018-06-21T05:41:46.074Z,1003.55
2018-06-21T05:42:26.602Z,1003.53
2018-06-21T05:43:07.120Z,1003.53
2018-06-21T05:43:47.658Z,1003.52
2018-06-21T05:44:28.206Z,1003.51
2018-06-21T05:45:08.698Z,1003.49
2018-06-21T05:45:49.218Z,1003.51
2018-06-21T05:46:29.736Z,1003.49
2018-06-21T05:47:10.256Z,1003.5
2018-06-21T05:47:50.778Z,1003.48
2018-06-21T05:48:31.329Z,1003.5
2018-06-21T05:49:11.869Z,1003.51
2018-06-21T05:49:52.390Z,1003.48
2018-06-21T05:50:32.921Z,1003.46
2018-06-21T05:51:13.437Z,1003.44
2018-06-21T05:51:53.945Z,1003.48
2018-06-21T05:52:34.488Z,1003.46
2018-06-21T05:53:15.029Z,1003.48
2018-06-21T05:53:55.555Z,1003.46
2018-06-21T05:54:36.069Z,1003.44
2018-06-21T05:55:16.590Z,1003.42
2018-06-21T05:55:57.119Z,1003.47
2018-06-21T05:56:37.700Z,1003.5
2018-06-21T05:57:18.167Z,1003.41
2018-06-21T05:57:58.690Z,1003.5
2018-06-21T05:58:39.210Z,1003.47
2018-06-21T05:59:19.739Z,1003.42
2018-06-21T06:00:00.279Z,1003.49
2018-06-21T06:00:40.825Z,1003.49
2018-06-21T06:01:21.342Z,1003.5
2018-06-21T06:02:01.902Z,1003.49
2018-06-21T06:02:42.393Z,1003.45
2018-06-21T06:03:22.934Z,1003.51
2018-06-21T06:04:03.460Z,1003.46
2018-06-21T06:04:44.011Z,1003.45
2018-06-21T06:05:24.537Z,1003.43
2018-06-21T06:06:05.047Z,1003.44
2018-06-21T06:06:45.618Z,1003.46
2018-06-21T06:07:26.182Z,1003.35
2018-06-21T06:08:06.709Z,1003.4
2018-06-21T06:08:47.247Z,1003.36
2018-06-21T06:09:27.780Z,1003.38
2018-06-21T06:10:08.421Z,1003.38
2018-06-21T06:10:48.881Z,1003.39
2018-06-21T06:11:29.412Z,1003.36
2018-06-21T06:12:09.947Z,1003.4
2018-06-21T06:12:50.473Z,1003.31
2018-06-21T06:13:31.020Z,1003.34
2018-06-21T06:14:11.555Z,1003.36
2018-06-21T06:14:52.087Z,1003.37
2018-06-21T06:15:32.599Z,1003.39
2018-06-21T06:16:13.123Z,1003.38
2018-06-21T06:16:53.692Z,1003.4
2018-06-21T06:17:34.230Z,1003.4
2018-06-21T06:18:14.771Z,1003.36
2018-06-21T06:18:55.320Z,1003.4
2018-06-21T06:19:35.840Z,1003.37
2018-06-21T06:20:16.387Z,1003.42
2018-06-21T06:20:56.916Z,1003.38
2018-06-21T06:21:37.463Z,1003.36
2018-06-21T06:22:17.980Z,1003.39
2018-06-21T06:22:58.502Z,1003.39
2018-06-21T06:23:39.038Z,1003.42
2018-06-21T06:24:19.556Z,1003.32
2018-06-21T06:25:00.088Z,1003.37
2018-06-21T06:25:40.654Z,1003.39
2018-06-21T06:26:21.114Z,1003.38
2018-06-21T06:27:01.637Z,1003.36
2018-06-21T06:27:42.170Z,1003.36
2018-06-21T06:28:22.698Z,1003.38
2018-06-21T06:29:03.254Z,1003.39
2018-06-21T06:29:43.765Z,1003.38
2018-06-21T06:30:24.280Z,1003.45
2018-06-21T06:31:04.807Z,1003.4
2018-06-21T06:31:45.328Z,1003.37
2018-06-21T06:32:25.881Z,1003.41
2018-06-21T06:33:06.393Z,1003.33
2018-06-21T06:33:46.935Z,1003.3
2018-06-21T06:34:27.454Z,1003.35
2018-06-21T06:35:07.965Z,1003.36
2018-06-21T06:35:48.536Z,1003.42
2018-06-21T06:36:29.054Z,1003.43
2018-06-21T06:37:09.572Z,1003.4
2018-06-21T06:37:50.101Z,1003.44
2018-06-21T06:38:30.633Z,1003.43
2018-06-21T06:39:11.151Z,1003.42
2018-06-21T06:39:51.677Z,1003.42
2018-06-21T06:40:32.275Z,1003.38
2018-06-21T06:41:12.796Z,1003.43
2018-06-21T06:41:53.327Z,1003.44
2018-06-21T06:42:33.852Z,1003.43
2018-06-21T06:43:14.416Z,1003.51
2018-06-21T06:43:54.961Z,1003.46
2018-06-21T06:44:35.470Z,1003.48
2018-06-21T06:45:16.043Z,1003.51
2018-06-21T06:45:56.565Z,1003.51
2018-06-21T06:46:37.102Z,1003.44
2018-06-21T06:47:17.640Z,1003.46
2018-06-21T06:47:58.167Z,1003.47
2018-06-21T06:48:38.684Z,1003.48
2018-06-21T06:49:19.212Z,1003.48
2018-06-21T06:49:59.743Z,1003.47
2018-06-21T06:50:40.276Z,1003.48
2018-06-21T06:51:20.814Z,1003.48
2018-06-21T06:52:01.336Z,1003.46
2018-06-21T06:52:41.868Z,1003.5
2018-06-21T06:53:22.395Z,1003.45
2018-06-21T06:54:02.919Z,1003.47
2018-06-21T06:54:43.495Z,1003.5
2018-06-21T06:55:23.952Z,1003.5
2018-06-21T06:56:04.467Z,1003.5
2018-06-21T06:56:45.004Z,1003.49
2018-06-21T06:57:25.542Z,1003.47
2018-06-21T06:58:06.089Z,1003.53
2018-06-21T06:58:46.604Z,1003.48
2018-06-21T06:59:27.125Z,1003.52
2018-06-21T07:00:07.660Z,1003.5
2018-06-21T07:00:48.191Z,1003.53
2018-06-21T07:01:28.709Z,1003.52
2018-06-21T07:02:09.227Z,1003.58
2018-06-21T07:02:49.741Z,1003.51
2018-06-21T07:03:30.267Z,1003.55
2018-06-21T07:04:10.781Z,1003.54
2018-06-21T07:04:51.302Z,1003.56
2018-06-21T07:05:31.847Z,1003.58
2018-06-21T07:06:12.368Z,1003.52
2018-06-21T07:06:52.890Z,1003.55
2018-06-21T07:07:33.423Z,1003.53
2018-06-21T07:08:14.015Z,1003.58
2018-06-21T07:08:54.482Z,1003.52
2018-06-21T07:09:35.083Z,1003.57
2018-06-21T07:10:15.611Z,1003.48
2018-06-21T07:10:56.144Z,1003.51
2018-06-21T07:11:36.689Z,1003.51
2018-06-21T07:12:17.210Z,1003.51
2018-06-21T07:12:57.737Z,1003.52
2018-06-21T07:13:38.278Z,1003.51
2018-06-21T07:14:18.952Z,1003.53
2018-06-21T07:14:59.390Z,1003.53
2018-06-21T07:15:39.921Z,1003.57
2018-06-21T07:16:20.443Z,1003.56
2018-06-21T07:17:00.986Z,1003.59
2018-06-21T07:17:41.541Z,1003.58
2018-06-21T07:18:22.057Z,1003.61
2018-06-21T07:19:02.584Z,1003.64
2018-06-21T07:19:43.122Z,1003.64
2018-06-21T07:20:23.702Z,1003.71
2018-06-21T07:21:04.174Z,1003.66
2018-06-21T07:21:44.695Z,1003.67
2018-06-21T07:22:25.235Z,1003.71
2018-06-21T07:23:05.758Z,1003.66
2018-06-21T07:23:46.296Z,1003.68
2018-06-21T07:24:26.840Z,1003.68
2018-06-21T07:25:07.360Z,1003.68
2018-06-21T07:25:47.887Z,1003.68
2018-06-21T07:26:28.414Z,1003.66
2018-06-21T07:27:08.999Z,1003.66
2018-06-21T07:27:49.463Z,1003.71
2018-06-21T07:28:30.150Z,1003.7
2018-06-21T07:29:10.564Z,1003.7
2018-06-21T07:29:51.152Z,1003.69
2018-06-21T07:30:31.608Z,1003.72
2018-06-21T07:31:12.143Z,1003.77
2018-06-21T07:31:52.677Z,1003.76
2018-06-21T07:32:33.197Z,1003.73
2018-06-21T07:33:13.735Z,1003.72
2018-06-21T07:33:54.258Z,1003.76
2018-06-21T07:34:34.784Z,1003.76
2018-06-21T07:35:15.299Z,1003.72
2018-06-21T07:35:55.846Z,1003.74
2018-06-21T07:36:36.370Z,1003.74
2018-06-21T07:37:16.891Z,1003.73
2018-06-21T07:37:57.409Z,1003.79
2018-06-21T07:38:37.954Z,1003.76
2018-06-21T07:39:18.501Z,1003.71
2018-06-21T07:39:59.023Z,1003.75
2018-06-21T07:40:39.554Z,1003.78
2018-06-21T07:41:20.148Z,1003.76
2018-06-21T07:42:00.688Z,1003.77
2018-06-21T07:42:41.205Z,1003.8
2018-06-21T07:43:21.757Z,1003.82
2018-06-21T07:44:02.277Z,1003.78
2018-06-21T07:44:42.795Z,1003.77
2018-06-21T07:45:23.322Z,1003.79
2018-06-21T07:46:03.859Z,1003.75
2018-06-21T07:46:44.402Z,1003.72
2018-06-21T07:47:24.935Z,1003.71
2018-06-21T07:48:05.448Z,1003.72
2018-06-21T07:48:45.979Z,1003.71
2018-06-21T07:49:26.501Z,1003.7
2018-06-21T07:50:07.024Z,1003.64
2018-06-21T07:50:47.552Z,1003.66
2018-06-21T07:51:28.079Z,1003.72
2018-06-21T07:52:08.683Z,1003.68
2018-06-21T07:52:49.206Z,1003.67
2018-06-21T07:53:29.731Z,1003.69
2018-06-21T07:54:10.271Z,1003.64
2018-06-21T07:54:50.822Z,1003.65
2018-06-21T07:55:31.345Z,1003.66
2018-06-21T07:56:11.900Z,1003.66
2018-06-21T07:56:52.425Z,1003.7
2018-06-21T07:57:32.968Z,1003.71
2018-06-21T07:58:13.503Z,1003.76
2018-06-21T07:58:54.027Z,1003.68
2018-06-21T07:59:34.563Z,1003.72
2018-06-21T08:00:15.089Z,1003.67
2018-06-21T08:00:55.641Z,1003.65
2018-06-21T08:01:36.192Z,1003.71
2018-06-21T08:02:16.716Z,1003.65
2018-06-21T08:02:57.253Z,1003.65
2018-06-21T08:03:37.778Z,1003.72
2018-06-21T08:04:18.313Z,1003.72
2018-06-21T08:04:58.839Z,1003.77
2018-06-21T08:05:39.377Z,1003.73
2018-06-21T08:06:19.900Z,1003.71
2018-06-21T08:07:00.533Z,1003.77
2018-06-21T08:07:41.043Z,1003.73
2018-06-21T08:08:21.553Z,1003.76
2018-06-21T08:09:02.073Z,1003.67
2018-06-21T08:09:42.616Z,1003.68
2018-06-21T08:10:23.146Z,1003.74
2018-06-21T08:11:03.694Z,1003.72
2018-06-21T08:11:44.279Z,1003.7
2018-06-21T08:12:24.773Z,1003.68
2018-06-21T08:13:05.300Z,1003.7
2018-06-21T08:13:45.838Z,1003.7
2018-06-21T08:14:26.357Z,1003.69
2018-06-21T08:15:06.889Z,1003.7
2018-06-21T08:15:47.440Z,1003.65